RYR46E LEZL-GCFV
Flight info
| Callsign | RYR46E |
|---|---|
| Flight time | 1h 56m |
| Altitude | 35000 |
| Route | CLANA N857 KORNO/N0437F370 UN857 TERTO |
| Aircraft | B738/M-SDE3FGILRWY/SB1 |
Departure
| Time | 2026-04-27 11:39 |
|---|---|
| Airport | Seville Airport (LEZL) |
Arrival
| Time | 2026-04-27 13:35 |
|---|---|
| Airport | Fuerteventura Airport (GCFV) |
| Time | Latitude | Longitude | Altitude | Speed | Heading |
|---|---|---|---|---|---|
| 2026-04-27 11:33 | 37.42119 | -5.89944 | 93 ft | 4 kts | 247° |
| 2026-04-27 11:33 | 37.42124 | -5.89933 | 93 ft | 1 kts | 225° |
| 2026-04-27 11:35 | 37.42121 | -5.89936 | 93 ft | 4 kts | 225° |
| 2026-04-27 11:35 | 37.42068 | -5.90001 | 93 ft | 14 kts | 225° |
| 2026-04-27 11:35 | 37.42031 | -5.90091 | 93 ft | 9 kts | 200° |
| 2026-04-27 11:36 | 37.41981 | -5.90123 | 96 ft | 9 kts | 253° |
| 2026-04-27 11:36 | 37.41980 | -5.90241 | 94 ft | 19 kts | 270° |
| 2026-04-27 11:36 | 37.41979 | -5.90434 | 93 ft | 24 kts | 270° |
| 2026-04-27 11:36 | 37.41979 | -5.90637 | 92 ft | 23 kts | 270° |
| 2026-04-27 11:37 | 37.41979 | -5.90832 | 90 ft | 22 kts | 269° |
| 2026-04-27 11:37 | 37.41976 | -5.91022 | 89 ft | 21 kts | 269° |
| 2026-04-27 11:37 | 37.41975 | -5.91210 | 88 ft | 23 kts | 266° |
| 2026-04-27 11:37 | 37.41870 | -5.91286 | 90 ft | 23 kts | 137° |
| 2026-04-27 11:38 | 37.41793 | -5.91117 | 90 ft | 23 kts | 99° |
| 2026-04-27 11:38 | 37.41789 | -5.90676 | 93 ft | 82 kts | 90° |
| 2026-04-27 11:38 | 37.41792 | -5.90090 | 97 ft | 120 kts | 89° |
| 2026-04-27 11:38 | 37.41803 | -5.88480 | 568 ft | 146 kts | 89° |
| 2026-04-27 11:39 | 37.41796 | -5.87589 | 843 ft | 160 kts | 91° |
| 2026-04-27 11:39 | 37.41765 | -5.86117 | 1359 ft | 170 kts | 93° |
| 2026-04-27 11:39 | 37.41666 | -5.84022 | 1876 ft | 191 kts | 105° |
| 2026-04-27 11:39 | 37.40956 | -5.82585 | 2369 ft | 204 kts | 137° |
| 2026-04-27 11:40 | 37.39624 | -5.81905 | 2853 ft | 216 kts | 175° |
| 2026-04-27 11:40 | 37.38632 | -5.82156 | 3295 ft | 220 kts | 202° |
| 2026-04-27 11:40 | 37.37401 | -5.83382 | 3830 ft | 230 kts | 221° |
| 2026-04-27 11:40 | 37.36311 | -5.84811 | 4582 ft | 225 kts | 223° |
| 2026-04-27 11:41 | 37.35229 | -5.86245 | 5200 ft | 228 kts | 224° |
| 2026-04-27 11:41 | 37.34126 | -5.87705 | 5876 ft | 232 kts | 224° |
| 2026-04-27 11:41 | 37.33007 | -5.89177 | 6527 ft | 236 kts | 223° |
| 2026-04-27 11:41 | 37.31871 | -5.90658 | 7294 ft | 233 kts | 224° |
| 2026-04-27 11:42 | 37.30749 | -5.92116 | 8076 ft | 231 kts | 223° |
| 2026-04-27 11:42 | 37.29631 | -5.93562 | 8828 ft | 233 kts | 224° |
| 2026-04-27 11:42 | 37.28493 | -5.95028 | 9549 ft | 236 kts | 224° |
| 2026-04-27 11:42 | 37.27367 | -5.96477 | 10299 ft | 236 kts | 224° |
| 2026-04-27 11:43 | 37.26208 | -5.97963 | 10953 ft | 241 kts | 224° |
| 2026-04-27 11:43 | 37.25032 | -5.99469 | 11709 ft | 241 kts | 224° |
| 2026-04-27 11:43 | 37.23850 | -6.00982 | 12408 ft | 245 kts | 224° |
| 2026-04-27 11:43 | 37.22649 | -6.02518 | 13159 ft | 248 kts | 224° |
| 2026-04-27 11:44 | 37.21433 | -6.04070 | 13882 ft | 251 kts | 224° |
| 2026-04-27 11:44 | 37.20198 | -6.05645 | 14549 ft | 254 kts | 224° |
| 2026-04-27 11:44 | 37.18952 | -6.07237 | 15254 ft | 257 kts | 224° |
| 2026-04-27 11:44 | 37.17692 | -6.08843 | 15972 ft | 259 kts | 224° |
| 2026-04-27 11:45 | 37.16416 | -6.10469 | 16640 ft | 264 kts | 224° |
| 2026-04-27 11:45 | 37.15123 | -6.12116 | 17356 ft | 266 kts | 224° |
| 2026-04-27 11:45 | 37.13814 | -6.13782 | 18038 ft | 270 kts | 224° |
| 2026-04-27 11:45 | 37.12487 | -6.15468 | 18648 ft | 274 kts | 224° |
| 2026-04-27 11:46 | 37.11137 | -6.17165 | 19265 ft | 276 kts | 220° |
| 2026-04-27 11:46 | 37.09474 | -6.18510 | 19438 ft | 296 kts | 202° |
| 2026-04-27 11:46 | 37.07438 | -6.19276 | 19628 ft | 316 kts | 192° |
| 2026-04-27 11:46 | 37.05216 | -6.19851 | 19785 ft | 337 kts | 191° |
| 2026-04-27 11:47 | 37.02843 | -6.20430 | 19905 ft | 357 kts | 191° |
| 2026-04-27 11:47 | 37.00343 | -6.21028 | 20123 ft | 373 kts | 191° |
| 2026-04-27 11:47 | 36.97853 | -6.22056 | 20516 ft | 383 kts | 210° |
| 2026-04-27 11:47 | 36.95751 | -6.24079 | 21318 ft | 380 kts | 220° |
| 2026-04-27 11:48 | 36.93757 | -6.26269 | 21929 ft | 385 kts | 221° |
| 2026-04-27 11:48 | 36.91739 | -6.28509 | 22414 ft | 391 kts | 221° |
| 2026-04-27 11:48 | 36.89695 | -6.30774 | 22976 ft | 395 kts | 221° |
| 2026-04-27 11:48 | 36.87626 | -6.33053 | 23516 ft | 399 kts | 221° |
| 2026-04-27 11:49 | 36.85537 | -6.35338 | 24074 ft | 399 kts | 220° |
| 2026-04-27 11:49 | 36.83441 | -6.37621 | 24602 ft | 401 kts | 220° |
| 2026-04-27 11:49 | 36.81321 | -6.39922 | 24993 ft | 406 kts | 219° |
| 2026-04-27 11:49 | 36.79196 | -6.42225 | 25667 ft | 402 kts | 219° |
| 2026-04-27 11:50 | 36.77096 | -6.44498 | 26337 ft | 400 kts | 219° |
| 2026-04-27 11:50 | 36.74980 | -6.46783 | 26661 ft | 407 kts | 220° |
| 2026-04-27 11:50 | 36.72818 | -6.49116 | 26883 ft | 415 kts | 219° |
| 2026-04-27 11:50 | 36.70621 | -6.51487 | 27227 ft | 420 kts | 220° |
| 2026-04-27 11:51 | 36.68401 | -6.53881 | 27644 ft | 423 kts | 219° |
| 2026-04-27 11:51 | 36.66204 | -6.56249 | 28077 ft | 425 kts | 219° |
| 2026-04-27 11:51 | 36.61704 | -6.61095 | 28850 ft | 431 kts | 219° |
| 2026-04-27 11:52 | 36.59441 | -6.63529 | 29422 ft | 429 kts | 219° |
| 2026-04-27 11:52 | 36.57193 | -6.65945 | 30053 ft | 426 kts | 219° |
| 2026-04-27 11:52 | 36.54958 | -6.68347 | 30568 ft | 422 kts | 220° |
| 2026-04-27 11:52 | 36.52767 | -6.70699 | 31425 ft | 410 kts | 219° |
| 2026-04-27 11:53 | 36.50623 | -6.72996 | 32042 ft | 406 kts | 219° |
| 2026-04-27 11:53 | 36.48451 | -6.75273 | 32247 ft | 411 kts | 219° |
| 2026-04-27 11:53 | 36.46251 | -6.77538 | 32684 ft | 409 kts | 219° |
| 2026-04-27 11:53 | 36.44062 | -6.79779 | 33161 ft | 407 kts | 219° |
| 2026-04-27 11:54 | 36.41872 | -6.82020 | 33542 ft | 407 kts | 219° |
| 2026-04-27 11:54 | 36.39701 | -6.84244 | 34099 ft | 402 kts | 219° |
| 2026-04-27 11:54 | 36.37552 | -6.86447 | 34529 ft | 399 kts | 219° |
| 2026-04-27 11:54 | 36.35415 | -6.88639 | 34887 ft | 398 kts | 219° |
| 2026-04-27 11:55 | 36.33277 | -6.90833 | 34932 ft | 401 kts | 219° |
| 2026-04-27 11:55 | 36.28953 | -6.95267 | 34953 ft | 406 kts | 219° |
| 2026-04-27 11:56 | 36.24631 | -6.99693 | 34954 ft | 399 kts | 219° |
| 2026-04-27 11:56 | 36.20365 | -7.04056 | 34954 ft | 395 kts | 219° |
| 2026-04-27 11:57 | 36.16127 | -7.08384 | 34971 ft | 396 kts | 219° |
| 2026-04-27 11:57 | 36.11860 | -7.12734 | 34952 ft | 399 kts | 219° |
| 2026-04-27 11:58 | 36.07557 | -7.17115 | 34960 ft | 402 kts | 219° |
| 2026-04-27 11:58 | 36.03230 | -7.21514 | 34948 ft | 403 kts | 219° |
| 2026-04-27 11:59 | 35.98914 | -7.25896 | 34934 ft | 401 kts | 219° |
| 2026-04-27 11:59 | 35.94615 | -7.30255 | 34937 ft | 400 kts | 219° |
| 2026-04-27 12:00 | 35.90353 | -7.34570 | 34954 ft | 399 kts | 219° |
| 2026-04-27 12:00 | 35.86065 | -7.38906 | 34942 ft | 399 kts | 219° |
| 2026-04-27 12:01 | 35.81766 | -7.43238 | 34951 ft | 399 kts | 219° |
| 2026-04-27 12:01 | 35.77443 | -7.47551 | 34941 ft | 400 kts | 219° |
| 2026-04-27 12:02 | 35.73108 | -7.51867 | 34935 ft | 401 kts | 219° |
| 2026-04-27 12:02 | 35.68763 | -7.56191 | 34944 ft | 402 kts | 219° |
| 2026-04-27 12:03 | 35.64410 | -7.60518 | 34930 ft | 403 kts | 218° |
| 2026-04-27 12:03 | 35.60053 | -7.64844 | 34914 ft | 403 kts | 218° |
| 2026-04-27 12:04 | 35.55695 | -7.69166 | 34934 ft | 402 kts | 218° |
| 2026-04-27 12:04 | 35.51341 | -7.73477 | 34936 ft | 401 kts | 218° |
| 2026-04-27 12:05 | 35.46990 | -7.77779 | 34909 ft | 401 kts | 218° |
| 2026-04-27 12:05 | 35.42670 | -7.82045 | 34909 ft | 402 kts | 218° |
| 2026-04-27 12:06 | 35.38331 | -7.86348 | 34906 ft | 402 kts | 219° |
| 2026-04-27 12:06 | 35.34005 | -7.90675 | 34924 ft | 401 kts | 219° |
| 2026-04-27 12:07 | 35.29674 | -7.95004 | 34929 ft | 402 kts | 219° |
| 2026-04-27 12:07 | 35.25340 | -7.99326 | 34913 ft | 402 kts | 219° |
| 2026-04-27 12:08 | 35.20999 | -8.03647 | 34897 ft | 403 kts | 218° |
| 2026-04-27 12:08 | 35.16658 | -8.07962 | 34909 ft | 402 kts | 218° |
| 2026-04-27 12:09 | 35.12314 | -8.12273 | 34921 ft | 402 kts | 218° |
| 2026-04-27 12:09 | 35.07969 | -8.16579 | 34910 ft | 402 kts | 218° |
| 2026-04-27 12:10 | 35.03624 | -8.20878 | 34896 ft | 402 kts | 218° |
| 2026-04-27 12:10 | 34.99281 | -8.25170 | 34912 ft | 402 kts | 218° |
| 2026-04-27 12:11 | 34.94936 | -8.29459 | 34908 ft | 401 kts | 218° |
| 2026-04-27 12:11 | 34.90593 | -8.33738 | 34886 ft | 402 kts | 218° |
| 2026-04-27 12:12 | 34.86253 | -8.38009 | 34906 ft | 401 kts | 218° |
| 2026-04-27 12:12 | 34.81910 | -8.42277 | 34917 ft | 401 kts | 218° |
| 2026-04-27 12:13 | 34.77565 | -8.46541 | 34901 ft | 401 kts | 218° |
| 2026-04-27 12:13 | 34.73222 | -8.50797 | 34898 ft | 401 kts | 218° |
| 2026-04-27 12:14 | 34.68878 | -8.55049 | 34909 ft | 401 kts | 218° |
| 2026-04-27 12:14 | 34.64530 | -8.59297 | 34912 ft | 401 kts | 218° |
| 2026-04-27 12:15 | 34.60185 | -8.63539 | 34891 ft | 401 kts | 218° |
| 2026-04-27 12:15 | 34.55837 | -8.67777 | 34893 ft | 401 kts | 218° |
| 2026-04-27 12:16 | 34.51489 | -8.72009 | 34918 ft | 401 kts | 218° |
| 2026-04-27 12:16 | 34.47135 | -8.76243 | 34915 ft | 401 kts | 218° |
| 2026-04-27 12:17 | 34.42775 | -8.80468 | 34894 ft | 402 kts | 218° |
| 2026-04-27 12:17 | 34.38402 | -8.84674 | 34896 ft | 402 kts | 217° |
| 2026-04-27 12:18 | 34.34021 | -8.88877 | 34912 ft | 402 kts | 217° |
| 2026-04-27 12:18 | 34.29636 | -8.93083 | 34893 ft | 402 kts | 217° |
| 2026-04-27 12:19 | 34.25281 | -8.97256 | 34898 ft | 402 kts | 217° |
| 2026-04-27 12:19 | 34.20889 | -9.01459 | 34903 ft | 402 kts | 217° |
| 2026-04-27 12:20 | 34.16467 | -9.05686 | 34889 ft | 403 kts | 217° |
| 2026-04-27 12:20 | 34.12102 | -9.09852 | 34922 ft | 403 kts | 217° |
| 2026-04-27 12:21 | 34.07700 | -9.14049 | 34905 ft | 403 kts | 217° |
| 2026-04-27 12:21 | 34.03296 | -9.18241 | 34890 ft | 404 kts | 217° |
| 2026-04-27 12:22 | 33.98884 | -9.22435 | 34914 ft | 404 kts | 217° |
| 2026-04-27 12:22 | 33.94470 | -9.26625 | 34897 ft | 405 kts | 217° |
| 2026-04-27 12:23 | 33.90048 | -9.30817 | 34905 ft | 404 kts | 217° |
| 2026-04-27 12:23 | 33.85630 | -9.35001 | 34904 ft | 404 kts | 217° |
| 2026-04-27 12:24 | 33.81202 | -9.39187 | 34900 ft | 405 kts | 217° |
| 2026-04-27 12:24 | 33.76776 | -9.43366 | 34916 ft | 404 kts | 217° |
| 2026-04-27 12:25 | 33.72349 | -9.47540 | 34909 ft | 405 kts | 217° |
| 2026-04-27 12:25 | 33.67914 | -9.51716 | 34906 ft | 405 kts | 217° |
| 2026-04-27 12:26 | 33.63475 | -9.55891 | 34914 ft | 405 kts | 217° |
| 2026-04-27 12:26 | 33.59034 | -9.60062 | 34911 ft | 406 kts | 217° |
| 2026-04-27 12:27 | 33.55340 | -9.63526 | 34913 ft | 406 kts | 217° |
| 2026-04-27 12:27 | 33.50893 | -9.67692 | 34918 ft | 406 kts | 217° |
| 2026-04-27 12:28 | 33.46441 | -9.71857 | 34914 ft | 406 kts | 217° |
| 2026-04-27 12:28 | 33.41985 | -9.76020 | 34918 ft | 406 kts | 217° |
| 2026-04-27 12:29 | 33.37530 | -9.80177 | 34925 ft | 406 kts | 217° |
| 2026-04-27 12:29 | 33.33071 | -9.84332 | 34930 ft | 406 kts | 217° |
| 2026-04-27 12:30 | 33.28606 | -9.88487 | 34927 ft | 407 kts | 217° |
| 2026-04-27 12:30 | 33.24137 | -9.92641 | 34928 ft | 407 kts | 217° |
| 2026-04-27 12:31 | 33.19666 | -9.96791 | 34926 ft | 407 kts | 217° |
| 2026-04-27 12:31 | 33.15188 | -10.00941 | 34928 ft | 408 kts | 217° |
| 2026-04-27 12:32 | 33.10708 | -10.05090 | 34935 ft | 408 kts | 217° |
| 2026-04-27 12:32 | 33.06224 | -10.09237 | 34931 ft | 408 kts | 217° |
| 2026-04-27 12:33 | 33.01737 | -10.13379 | 34927 ft | 408 kts | 217° |
| 2026-04-27 12:33 | 32.97247 | -10.17515 | 34940 ft | 408 kts | 217° |
| 2026-04-27 12:34 | 32.92756 | -10.21646 | 34937 ft | 408 kts | 217° |
| 2026-04-27 12:34 | 32.88264 | -10.25774 | 34928 ft | 408 kts | 217° |
| 2026-04-27 12:35 | 32.83802 | -10.29870 | 34941 ft | 408 kts | 217° |
| 2026-04-27 12:35 | 32.79313 | -10.33986 | 34940 ft | 407 kts | 217° |
| 2026-04-27 12:36 | 32.74822 | -10.38097 | 34943 ft | 407 kts | 217° |
| 2026-04-27 12:36 | 32.70336 | -10.42201 | 34944 ft | 407 kts | 217° |
| 2026-04-27 12:37 | 32.65847 | -10.46300 | 34943 ft | 407 kts | 217° |
| 2026-04-27 12:37 | 32.61359 | -10.50393 | 34947 ft | 407 kts | 216° |
| 2026-04-27 12:38 | 32.56871 | -10.54482 | 34940 ft | 407 kts | 216° |
| 2026-04-27 12:38 | 32.52378 | -10.58569 | 34963 ft | 407 kts | 216° |
| 2026-04-27 12:39 | 32.47884 | -10.62653 | 34951 ft | 407 kts | 216° |
| 2026-04-27 12:39 | 32.43383 | -10.66736 | 34943 ft | 408 kts | 216° |
| 2026-04-27 12:40 | 32.38884 | -10.70815 | 34956 ft | 407 kts | 217° |
| 2026-04-27 12:40 | 32.34381 | -10.74892 | 34963 ft | 407 kts | 216° |
| 2026-04-27 12:41 | 32.29873 | -10.78966 | 34951 ft | 408 kts | 217° |
| 2026-04-27 12:41 | 32.25393 | -10.83009 | 34943 ft | 408 kts | 217° |
| 2026-04-27 12:42 | 32.20881 | -10.87075 | 34967 ft | 408 kts | 216° |
| 2026-04-27 12:42 | 32.16366 | -10.91140 | 34969 ft | 408 kts | 217° |
| 2026-04-27 12:43 | 32.11852 | -10.95201 | 34956 ft | 408 kts | 217° |
| 2026-04-27 12:43 | 32.07332 | -10.99260 | 34965 ft | 409 kts | 217° |
| 2026-04-27 12:44 | 32.02799 | -11.03327 | 34980 ft | 410 kts | 217° |
| 2026-04-27 12:44 | 31.98251 | -11.07401 | 34961 ft | 411 kts | 217° |
| 2026-04-27 12:45 | 31.93698 | -11.11475 | 34958 ft | 412 kts | 217° |
| 2026-04-27 12:45 | 31.89138 | -11.15550 | 34976 ft | 412 kts | 217° |
| 2026-04-27 12:46 | 31.84573 | -11.19625 | 34972 ft | 412 kts | 217° |
| 2026-04-27 12:46 | 31.80011 | -11.23693 | 34958 ft | 412 kts | 217° |
| 2026-04-27 12:47 | 31.75449 | -11.27754 | 34981 ft | 411 kts | 217° |
| 2026-04-27 12:47 | 31.70891 | -11.31813 | 34986 ft | 411 kts | 217° |
| 2026-04-27 12:48 | 31.66332 | -11.35872 | 34963 ft | 412 kts | 217° |
| 2026-04-27 12:48 | 31.61770 | -11.39931 | 34977 ft | 412 kts | 217° |
| 2026-04-27 12:49 | 31.57198 | -11.43994 | 34985 ft | 412 kts | 217° |
| 2026-04-27 12:49 | 31.52620 | -11.48057 | 34975 ft | 413 kts | 217° |
| 2026-04-27 12:50 | 31.48033 | -11.52122 | 34974 ft | 414 kts | 217° |
| 2026-04-27 12:50 | 31.43437 | -11.56190 | 34983 ft | 414 kts | 217° |
| 2026-04-27 12:51 | 31.38835 | -11.60258 | 34963 ft | 415 kts | 217° |
| 2026-04-27 12:51 | 31.34233 | -11.64322 | 34973 ft | 415 kts | 217° |
| 2026-04-27 12:52 | 31.29627 | -11.68383 | 34987 ft | 414 kts | 217° |
| 2026-04-27 12:52 | 31.25025 | -11.72436 | 34980 ft | 414 kts | 217° |
| 2026-04-27 12:53 | 31.18151 | -11.78481 | 34973 ft | 414 kts | 217° |
| 2026-04-27 12:53 | 31.13549 | -11.82521 | 34978 ft | 414 kts | 217° |
| 2026-04-27 12:54 | 31.08942 | -11.86561 | 34995 ft | 414 kts | 217° |
| 2026-04-27 12:54 | 31.04333 | -11.90598 | 34988 ft | 414 kts | 217° |
| 2026-04-27 12:55 | 30.99724 | -11.94630 | 34985 ft | 415 kts | 217° |
| 2026-04-27 12:55 | 30.95110 | -11.98660 | 34996 ft | 414 kts | 217° |
| 2026-04-27 12:56 | 30.90491 | -12.02691 | 34993 ft | 415 kts | 217° |
| 2026-04-27 12:56 | 30.85871 | -12.06718 | 34982 ft | 415 kts | 217° |
| 2026-04-27 12:57 | 30.81250 | -12.10740 | 34982 ft | 415 kts | 217° |
| 2026-04-27 12:57 | 30.76617 | -12.14767 | 34996 ft | 415 kts | 218° |
| 2026-04-27 12:58 | 30.71982 | -12.18793 | 34985 ft | 416 kts | 217° |
| 2026-04-27 12:58 | 30.67343 | -12.22816 | 34984 ft | 416 kts | 217° |
| 2026-04-27 12:59 | 30.62700 | -12.26837 | 34999 ft | 416 kts | 217° |
| 2026-04-27 12:59 | 30.58052 | -12.30860 | 34994 ft | 417 kts | 218° |
| 2026-04-27 13:00 | 30.53403 | -12.34878 | 34988 ft | 417 kts | 217° |
| 2026-04-27 13:00 | 30.48787 | -12.38859 | 35003 ft | 416 kts | 218° |
| 2026-04-27 13:01 | 30.44130 | -12.42854 | 34998 ft | 416 kts | 218° |
| 2026-04-27 13:01 | 30.39479 | -12.46846 | 34995 ft | 416 kts | 219° |
| 2026-04-27 13:02 | 30.34823 | -12.50836 | 35001 ft | 416 kts | 218° |
| 2026-04-27 13:02 | 30.30172 | -12.54827 | 35009 ft | 416 kts | 218° |
| 2026-04-27 13:03 | 30.25524 | -12.58809 | 34996 ft | 416 kts | 217° |
| 2026-04-27 13:03 | 30.20873 | -12.62775 | 35001 ft | 416 kts | 218° |
| 2026-04-27 13:04 | 30.16223 | -12.66741 | 35006 ft | 415 kts | 218° |
| 2026-04-27 13:04 | 30.11573 | -12.70702 | 35012 ft | 415 kts | 218° |
| 2026-04-27 13:05 | 30.06722 | -12.74324 | 35017 ft | 416 kts | 210° |
| 2026-04-27 13:05 | 30.01615 | -12.77478 | 35012 ft | 416 kts | 211° |
| 2026-04-27 13:06 | 29.96504 | -12.80635 | 35010 ft | 417 kts | 210° |
| 2026-04-27 13:06 | 29.91419 | -12.83845 | 35009 ft | 417 kts | 210° |
| 2026-04-27 13:07 | 29.86342 | -12.87079 | 35011 ft | 417 kts | 210° |
| 2026-04-27 13:07 | 29.81256 | -12.90324 | 34671 ft | 421 kts | 211° |
| 2026-04-27 13:08 | 29.78703 | -12.91950 | 34383 ft | 415 kts | 210° |
| 2026-04-27 13:08 | 29.76181 | -12.93557 | 33873 ft | 415 kts | 211° |
| 2026-04-27 13:08 | 29.73667 | -12.95156 | 33516 ft | 411 kts | 211° |
| 2026-04-27 13:08 | 29.71172 | -12.96743 | 33074 ft | 408 kts | 210° |
| 2026-04-27 13:09 | 29.68695 | -12.98318 | 32684 ft | 405 kts | 211° |
| 2026-04-27 13:09 | 29.66237 | -12.99879 | 32296 ft | 402 kts | 211° |
| 2026-04-27 13:09 | 29.63794 | -13.01429 | 31919 ft | 400 kts | 210° |
| 2026-04-27 13:09 | 29.61369 | -13.02969 | 31546 ft | 397 kts | 211° |
| 2026-04-27 13:10 | 29.58953 | -13.04500 | 31167 ft | 395 kts | 211° |
| 2026-04-27 13:10 | 29.56548 | -13.06024 | 30800 ft | 394 kts | 210° |
| 2026-04-27 13:10 | 29.54157 | -13.07538 | 30435 ft | 392 kts | 211° |
| 2026-04-27 13:10 | 29.51773 | -13.09048 | 30063 ft | 390 kts | 211° |
| 2026-04-27 13:11 | 29.49398 | -13.10550 | 29629 ft | 389 kts | 210° |
| 2026-04-27 13:11 | 29.47068 | -13.12022 | 29234 ft | 386 kts | 210° |
| 2026-04-27 13:11 | 29.44690 | -13.13524 | 28817 ft | 383 kts | 211° |
| 2026-04-27 13:11 | 29.42395 | -13.14975 | 28437 ft | 381 kts | 211° |
| 2026-04-27 13:12 | 29.40083 | -13.16435 | 28058 ft | 378 kts | 210° |
| 2026-04-27 13:12 | 29.37788 | -13.17883 | 27677 ft | 376 kts | 210° |
| 2026-04-27 13:12 | 29.35499 | -13.19310 | 27302 ft | 374 kts | 208° |
| 2026-04-27 13:12 | 29.33172 | -13.20623 | 26929 ft | 372 kts | 206° |
| 2026-04-27 13:13 | 29.30838 | -13.21880 | 26563 ft | 370 kts | 206° |
| 2026-04-27 13:13 | 29.28514 | -13.23127 | 26194 ft | 368 kts | 207° |
| 2026-04-27 13:13 | 29.26205 | -13.24379 | 25838 ft | 366 kts | 206° |
| 2026-04-27 13:13 | 29.23913 | -13.25634 | 25488 ft | 364 kts | 207° |
| 2026-04-27 13:14 | 29.21630 | -13.26885 | 25124 ft | 363 kts | 207° |
| 2026-04-27 13:14 | 29.19353 | -13.28134 | 24722 ft | 364 kts | 206° |
| 2026-04-27 13:14 | 29.17060 | -13.29390 | 24249 ft | 367 kts | 206° |
| 2026-04-27 13:14 | 29.14753 | -13.30652 | 23803 ft | 368 kts | 207° |
| 2026-04-27 13:15 | 29.13188 | -13.31509 | 23438 ft | 371 kts | 207° |
| 2026-04-27 13:15 | 29.10856 | -13.32785 | 22918 ft | 371 kts | 206° |
| 2026-04-27 13:15 | 29.08530 | -13.34057 | 22468 ft | 370 kts | 207° |
| 2026-04-27 13:15 | 29.06206 | -13.35327 | 21969 ft | 370 kts | 207° |
| 2026-04-27 13:16 | 29.03884 | -13.36596 | 21516 ft | 369 kts | 207° |
| 2026-04-27 13:16 | 29.01571 | -13.37857 | 21074 ft | 368 kts | 207° |
| 2026-04-27 13:16 | 28.99266 | -13.39115 | 20600 ft | 367 kts | 207° |
| 2026-04-27 13:16 | 28.96961 | -13.40372 | 20146 ft | 366 kts | 207° |
| 2026-04-27 13:17 | 28.94665 | -13.41625 | 19703 ft | 365 kts | 207° |
| 2026-04-27 13:17 | 28.92406 | -13.42855 | 19260 ft | 364 kts | 207° |
| 2026-04-27 13:17 | 28.90124 | -13.44098 | 18807 ft | 363 kts | 208° |
| 2026-04-27 13:17 | 28.87849 | -13.45337 | 18359 ft | 363 kts | 207° |
| 2026-04-27 13:18 | 28.85571 | -13.46577 | 17835 ft | 362 kts | 207° |
| 2026-04-27 13:18 | 28.83309 | -13.47808 | 17367 ft | 359 kts | 207° |
| 2026-04-27 13:18 | 28.81057 | -13.49033 | 16915 ft | 357 kts | 208° |
| 2026-04-27 13:18 | 28.78819 | -13.50248 | 16467 ft | 355 kts | 208° |
| 2026-04-27 13:19 | 28.76593 | -13.51459 | 16018 ft | 354 kts | 207° |
| 2026-04-27 13:19 | 28.74376 | -13.52663 | 15587 ft | 352 kts | 207° |
| 2026-04-27 13:19 | 28.72174 | -13.53859 | 15163 ft | 350 kts | 208° |
| 2026-04-27 13:19 | 28.69977 | -13.55051 | 14717 ft | 349 kts | 207° |
| 2026-04-27 13:20 | 28.67794 | -13.56235 | 14298 ft | 347 kts | 207° |
| 2026-04-27 13:20 | 28.65622 | -13.57412 | 13873 ft | 346 kts | 207° |
| 2026-04-27 13:20 | 28.63449 | -13.58589 | 13370 ft | 345 kts | 208° |
| 2026-04-27 13:20 | 28.61286 | -13.59762 | 12925 ft | 343 kts | 206° |
| 2026-04-27 13:21 | 28.59141 | -13.60924 | 12513 ft | 340 kts | 207° |
| 2026-04-27 13:21 | 28.57006 | -13.62079 | 12060 ft | 339 kts | 206° |
| 2026-04-27 13:21 | 28.54881 | -13.63227 | 11643 ft | 337 kts | 206° |
| 2026-04-27 13:21 | 28.52768 | -13.64363 | 11233 ft | 335 kts | 205° |
| 2026-04-27 13:22 | 28.50641 | -13.65420 | 10815 ft | 333 kts | 203° |
| 2026-04-27 13:22 | 28.48514 | -13.66446 | 10411 ft | 331 kts | 203° |
| 2026-04-27 13:22 | 28.46378 | -13.67412 | 9974 ft | 330 kts | 195° |
| 2026-04-27 13:22 | 28.44135 | -13.67584 | 9921 ft | 314 kts | 175° |
| 2026-04-27 13:23 | 28.42022 | -13.67288 | 9907 ft | 300 kts | 171° |
| 2026-04-27 13:23 | 28.39993 | -13.66930 | 9825 ft | 289 kts | 171° |
| 2026-04-27 13:23 | 28.38035 | -13.66594 | 9688 ft | 281 kts | 171° |
| 2026-04-27 13:23 | 28.36096 | -13.66412 | 9420 ft | 280 kts | 182° |
| 2026-04-27 13:24 | 28.34155 | -13.66613 | 9207 ft | 280 kts | 186° |
| 2026-04-27 13:24 | 28.32260 | -13.66893 | 9083 ft | 268 kts | 187° |
| 2026-04-27 13:24 | 28.30454 | -13.67164 | 8871 ft | 258 kts | 187° |
| 2026-04-27 13:24 | 28.28662 | -13.67420 | 8417 ft | 259 kts | 187° |
| 2026-04-27 13:25 | 28.26882 | -13.67663 | 8021 ft | 258 kts | 187° |
| 2026-04-27 13:25 | 28.25108 | -13.67895 | 7647 ft | 256 kts | 187° |
| 2026-04-27 13:25 | 28.23325 | -13.68123 | 7245 ft | 256 kts | 187° |
| 2026-04-27 13:25 | 28.21559 | -13.68345 | 6871 ft | 256 kts | 187° |
| 2026-04-27 13:26 | 28.19813 | -13.68561 | 6484 ft | 256 kts | 187° |
| 2026-04-27 13:26 | 28.18055 | -13.68777 | 6146 ft | 252 kts | 187° |
| 2026-04-27 13:26 | 28.16393 | -13.69316 | 5677 ft | 249 kts | 217° |
| 2026-04-27 13:26 | 28.15377 | -13.70816 | 5310 ft | 238 kts | 256° |
| 2026-04-27 13:27 | 28.15217 | -13.72604 | 5038 ft | 223 kts | 278° |
| 2026-04-27 13:27 | 28.15602 | -13.74296 | 4502 ft | 224 kts | 298° |
| 2026-04-27 13:27 | 28.16393 | -13.75791 | 4253 ft | 217 kts | 305° |
| 2026-04-27 13:27 | 28.17239 | -13.77213 | 3981 ft | 218 kts | 306° |
| 2026-04-27 13:28 | 28.18094 | -13.78644 | 3743 ft | 220 kts | 306° |
| 2026-04-27 13:28 | 28.18948 | -13.80089 | 3553 ft | 220 kts | 306° |
| 2026-04-27 13:28 | 28.19802 | -13.81545 | 3533 ft | 222 kts | 306° |
| 2026-04-27 13:28 | 28.20651 | -13.83000 | 3508 ft | 220 kts | 306° |
| 2026-04-27 13:29 | 28.21489 | -13.84438 | 3504 ft | 216 kts | 306° |
| 2026-04-27 13:29 | 28.22276 | -13.85791 | 3465 ft | 195 kts | 308° |
| 2026-04-27 13:29 | 28.23213 | -13.86762 | 3469 ft | 178 kts | 345° |
| 2026-04-27 13:29 | 28.24424 | -13.86890 | 3533 ft | 175 kts | 357° |
| 2026-04-27 13:30 | 28.25646 | -13.86961 | 3502 ft | 176 kts | 358° |
| 2026-04-27 13:30 | 28.26870 | -13.86968 | 3369 ft | 179 kts | 0° |
| 2026-04-27 13:30 | 28.28098 | -13.86941 | 3162 ft | 174 kts | 0° |
| 2026-04-27 13:30 | 28.29294 | -13.86905 | 2941 ft | 169 kts | 1° |
| 2026-04-27 13:31 | 28.30439 | -13.86867 | 2729 ft | 159 kts | 2° |
| 2026-04-27 13:31 | 28.31510 | -13.86831 | 2547 ft | 148 kts | 0° |
| 2026-04-27 13:31 | 28.32554 | -13.86797 | 2322 ft | 150 kts | 0° |
| 2026-04-27 13:31 | 28.33587 | -13.86763 | 2128 ft | 148 kts | 2° |
| 2026-04-27 13:32 | 28.34611 | -13.86729 | 1923 ft | 146 kts | 2° |
| 2026-04-27 13:32 | 28.35621 | -13.86695 | 1723 ft | 142 kts | 1° |
| 2026-04-27 13:32 | 28.36601 | -13.86663 | 1556 ft | 140 kts | 1° |
| 2026-04-27 13:32 | 28.37615 | -13.86628 | 1359 ft | 151 kts | 0° |
| 2026-04-27 13:33 | 28.38660 | -13.86596 | 1149 ft | 145 kts | 1° |
| 2026-04-27 13:33 | 28.39646 | -13.86562 | 960 ft | 141 kts | 2° |
| 2026-04-27 13:33 | 28.40612 | -13.86515 | 733 ft | 136 kts | 358° |
| 2026-04-27 13:33 | 28.41547 | -13.86491 | 606 ft | 134 kts | 360° |
| 2026-04-27 13:34 | 28.42502 | -13.86459 | 431 ft | 140 kts | 359° |
| 2026-04-27 13:34 | 28.43482 | -13.86436 | 213 ft | 142 kts | 1° |
| 2026-04-27 13:34 | 28.44448 | -13.86405 | 62 ft | 136 kts | 1° |
| 2026-04-27 13:34 | 28.45260 | -13.86377 | 78 ft | 88 kts | 1° |
| 2026-04-27 13:35 | 28.45612 | -13.86366 | 88 ft | 25 kts | 0° |
| 2026-04-27 13:35 | 28.45663 | -13.86482 | 90 ft | 18 kts | 270° |
| 2026-04-27 13:35 | 28.45603 | -13.86559 | 95 ft | 11 kts | 182° |
| 2026-04-27 13:35 | 28.45531 | -13.86562 | 95 ft | 10 kts | 182° |
| 2026-04-27 13:36 | 28.45497 | -13.86563 | 95 ft | 3 kts | 182° |
| 2026-04-27 13:36 | 28.45475 | -13.86564 | 97 ft | 3 kts | 182° |
| 2026-04-27 13:36 | 28.45453 | -13.86565 | 97 ft | 4 kts | 182° |
| 2026-04-27 13:36 | 28.45418 | -13.86566 | 96 ft | 7 kts | 182° |
| 2026-04-27 13:37 | 28.45374 | -13.86596 | 97 ft | 8 kts | 248° |
| 2026-04-27 13:37 | 28.45371 | -13.86666 | 97 ft | 10 kts | 271° |
| 2026-04-27 13:37 | 28.45383 | -13.86750 | 100 ft | 12 kts | 273° |
| 2026-04-27 13:37 | 28.45384 | -13.86806 | 98 ft | 6 kts | 271° |
| 2026-04-27 13:38 | 28.45385 | -13.86829 | 98 ft | 0 kts | 271° |